Airfield :
LOGIN :

Register | Disclaimer

   EN    FR    IT 

 










Legend :    VFR   Marginal VFR   IFR   Intensive IFR   Very Intensive IFR
Visi :
Ceiling :
>= 8 km
>= 3000ft
5 to 8 km
1000 to 3000 ft
1500m to 5 km
500 to 1000 ft
800 to 1500m
200 to 500 ft
< 800m
< 200 ft
Symbols :   Thunderstorms  Fog  Heavy snow  Heavy precipitations  Wind > 20 kt
SIGMETs :     Misc.  Thunderstorms  Icing  Turbulence  Mountain Waves  Volcanic Ashes






- Airport Elevation : 640 ft
- IATA code : AOC


EDAC - Altenburg-Nobitz

CURRENT METAR :
  • 300550Z AUTO 22012KT 9999 // FEW043/// BKN050/// OVC057/// 11/09 Q1017

EXPIRED METARs :
  • 300520Z AUTO 21010KT 9999 // FEW027/// OVC036/// 10/09 Q1017
  • 300450Z AUTO 21010KT 9999 // BKN038/// OVC066/// 10/09 Q1017
  • 300420Z AUTO 21011KT 9999 // BKN042/// OVC067/// 10/09 Q1017
  • 300350Z AUTO 20011KT 9999 // BKN039/// OVC067/// 10/08 Q1016
  • 300320Z AUTO 20009KT 9999 // SCT038/// BKN043/// OVC059/// 09/08 Q1016

Expired Forecast.



MET'MAP, your aeronautical weather chart ! - Copyright ORBIFLY December 2007 - Disclaimer

ORBIFLY MET'MAP TEAM :

Programming & Development : Alexandra Zaïnal
Concept & original design : Baudouin d'Aumeries
Assistance for programming : Marc-Olivier Méhu
Technical & hardware support : Manuel Goepfert

Contact : metmap@orbifly.com




SOURCES & CREDITS :

   NOAA